sensor_id;sensor_type;location;lat;lon;timestamp;pressure;altitude;pressure_sealevel;temperature;humidity
26978;BME280;56314;48.088;11.642;2023-02-15T00:01:36;96759.19;;;-1.22;98.02
26978;BME280;56314;48.088;11.642;2023-02-15T00:04:02;96763.47;;;-1.20;98.63
26978;BME280;56314;48.088;11.642;2023-02-15T00:06:27;96754.97;;;-1.30;99.09
26978;BME280;56314;48.088;11.642;2023-02-15T00:08:54;96757.56;;;-1.30;99.62
26978;BME280;56314;48.088;11.642;2023-02-15T00:11:20;96753.19;;;-1.23;99.17
26978;BME280;56314;48.088;11.642;2023-02-15T00:14:05;96751.53;;;-1.29;98.93
26978;BME280;56314;48.088;11.642;2023-02-15T00:16:31;96749.00;;;-1.35;99.09
26978;BME280;56314;48.088;11.642;2023-02-15T00:18:56;96746.56;;;-1.50;99.53
26978;BME280;56314;48.088;11.642;2023-02-15T00:21:21;96748.25;;;-1.51;100.00
26978;BME280;56314;48.088;11.642;2023-02-15T00:23:47;96745.69;;;-1.48;100.00
26978;BME280;56314;48.088;11.642;2023-02-15T00:26:12;96755.06;;;-1.39;100.00
26978;BME280;56314;48.088;11.642;2023-02-15T00:28:38;96746.50;;;-1.44;100.00
26978;BME280;56314;48.088;11.642;2023-02-15T00:31:11;96745.72;;;-1.52;99.35
26978;BME280;56314;48.088;11.642;2023-02-15T00:33:38;96747.44;;;-1.56;99.90
26978;BME280;56314;48.088;11.642;2023-02-15T00:36:05;96755.22;;;-1.65;99.79
26978;BME280;56314;48.088;11.642;2023-02-15T00:38:31;96753.47;;;-1.59;99.77
26978;BME280;56314;48.088;11.642;2023-02-15T00:40:59;96752.66;;;-1.64;100.00
26978;BME280;56314;48.088;11.642;2023-02-15T00:43:25;96749.25;;;-1.66;100.00
26978;BME280;56314;48.088;11.642;2023-02-15T00:45:51;96751.88;;;-1.74;100.00
26978;BME280;56314;48.088;11.642;2023-02-15T00:48:17;96754.34;;;-1.60;100.00
26978;BME280;56314;48.088;11.642;2023-02-15T00:50:51;96755.22;;;-1.59;100.00
26978;BME280;56314;48.088;11.642;2023-02-15T00:53:17;96739.81;;;-1.73;100.00
26978;BME280;56314;48.088;11.642;2023-02-15T00:55:43;96745.03;;;-1.76;100.00
26978;BME280;56314;48.088;11.642;2023-02-15T00:58:09;96738.97;;;-1.72;100.00
26978;BME280;56314;48.088;11.642;2023-02-15T01:00:35;96742.34;;;-1.65;100.00
26978;BME280;56314;48.088;11.642;2023-02-15T01:03:00;96728.63;;;-1.66;100.00
26978;BME280;56314;48.088;11.642;2023-02-15T01:05:26;96730.47;;;-1.82;100.00
26978;BME280;56314;48.088;11.642;2023-02-15T01:07:51;96731.34;;;-1.83;100.00
26978;BME280;56314;48.088;11.642;2023-02-15T01:10:17;96730.41;;;-1.76;100.00
26978;BME280;56314;48.088;11.642;2023-02-15T01:12:42;96719.25;;;-1.78;100.00
26978;BME280;56314;48.088;11.642;2023-02-15T01:15:08;96724.44;;;-1.79;100.00
26978;BME280;56314;48.088;11.642;2023-02-15T01:17:33;96709.88;;;-1.85;100.00
26978;BME280;56314;48.088;11.642;2023-02-15T01:19:59;96708.16;;;-1.86;100.00
26978;BME280;56314;48.088;11.642;2023-02-15T01:22:24;96710.78;;;-1.88;100.00
26978;BME280;56314;48.088;11.642;2023-02-15T01:24:49;96715.00;;;-1.83;100.00
26978;BME280;56314;48.088;11.642;2023-02-15T01:27:15;96710.75;;;-1.89;100.00
26978;BME280;56314;48.088;11.642;2023-02-15T01:29:40;96710.81;;;-1.95;100.00
26978;BME280;56314;48.088;11.642;2023-02-15T01:32:06;96707.38;;;-1.94;100.00
26978;BME280;56314;48.088;11.642;2023-02-15T01:34:31;96708.19;;;-1.89;100.00
26978;BME280;56314;48.088;11.642;2023-02-15T01:36:56;96704.78;;;-1.93;100.00
26978;BME280;56314;48.088;11.642;2023-02-15T01:39:22;96701.34;;;-1.89;100.00
26978;BME280;56314;48.088;11.642;2023-02-15T01:41:47;96696.13;;;-1.86;100.00
26978;BME280;56314;48.088;11.642;2023-02-15T01:44:48;96700.47;;;-1.88;100.00
26978;BME280;56314;48.088;11.642;2023-02-15T01:47:20;96691.03;;;-1.90;100.00
26978;BME280;56314;48.088;11.642;2023-02-15T01:49:47;96703.03;;;-1.86;100.00
26978;BME280;56314;48.088;11.642;2023-02-15T01:52:16;96695.38;;;-1.95;100.00
26978;BME280;56314;48.088;11.642;2023-02-15T01:54:44;96694.53;;;-1.99;100.00
26978;BME280;56314;48.088;11.642;2023-02-15T01:57:18;96681.56;;;-1.88;100.00
26978;BME280;56314;48.088;11.642;2023-02-15T01:59:49;96678.16;;;-1.92;100.00
26978;BME280;56314;48.088;11.642;2023-02-15T02:02:17;96677.34;;;-1.98;100.00
26978;BME280;56314;48.088;11.642;2023-02-15T02:04:48;96674.88;;;-2.14;100.00
26978;BME280;56314;48.088;11.642;2023-02-15T02:07:17;96670.53;;;-2.07;100.00
26978;BME280;56314;48.088;11.642;2023-02-15T02:09:45;96674.03;;;-2.16;100.00
26978;BME280;56314;48.088;11.642;2023-02-15T02:12:10;96664.56;;;-2.11;100.00
26978;BME280;56314;48.088;11.642;2023-02-15T02:14:37;96660.25;;;-2.04;100.00
26978;BME280;56314;48.088;11.642;2023-02-15T02:31:01;96663.72;;;-2.16;100.00
26978;BME280;56314;48.088;11.642;2023-02-15T02:33:46;96665.50;;;-2.18;100.00
26978;BME280;56314;48.088;11.642;2023-02-15T02:36:22;96671.44;;;-2.13;100.00
26978;BME280;56314;48.088;11.642;2023-02-15T02:41:55;96664.50;;;-2.00;100.00
26978;BME280;56314;48.088;11.642;2023-02-15T02:44:29;96666.31;;;-2.18;100.00
26978;BME280;56314;48.088;11.642;2023-02-15T02:47:06;96668.88;;;-2.13;100.00
26978;BME280;56314;48.088;11.642;2023-02-15T02:49:38;96657.72;;;-2.13;100.00
26978;BME280;56314;48.088;11.642;2023-02-15T02:54:49;96644.84;;;-2.15;100.00
26978;BME280;56314;48.088;11.642;2023-02-15T02:57:15;96644.91;;;-2.21;100.00
26978;BME280;56314;48.088;11.642;2023-02-15T02:59:43;96643.06;;;-1.99;100.00
26978;BME280;56314;48.088;11.642;2023-02-15T03:02:17;96639.69;;;-2.10;100.00
26978;BME280;56314;48.088;11.642;2023-02-15T03:04:47;96644.84;;;-2.09;100.00
26978;BME280;56314;48.088;11.642;2023-02-15T03:07:21;96639.69;;;-2.09;100.00
26978;BME280;56314;48.088;11.642;2023-02-15T03:09:51;96638.88;;;-2.19;100.00
26978;BME280;56314;48.088;11.642;2023-02-15T03:12:20;96643.16;;;-2.18;100.00
26978;BME280;56314;48.088;11.642;2023-02-15T03:14:52;96649.94;;;-2.04;100.00
26978;BME280;56314;48.088;11.642;2023-02-15T03:17:21;96653.25;;;-1.87;100.00
26978;BME280;56314;48.088;11.642;2023-02-15T03:19:50;96654.97;;;-1.87;100.00
26978;BME280;56314;48.088;11.642;2023-02-15T03:22:21;96648.91;;;-1.81;100.00
26978;BME280;56314;48.088;11.642;2023-02-15T03:24:53;96648.94;;;-1.84;100.00
26978;BME280;56314;48.088;11.642;2023-02-15T03:27:24;96646.44;;;-1.94;100.00
26978;BME280;56314;48.088;11.642;2023-02-15T03:29:53;96647.22;;;-1.86;100.00
26978;BME280;56314;48.088;11.642;2023-02-15T03:32:20;96646.34;;;-1.84;99.86
26978;BME280;56314;48.088;11.642;2023-02-15T03:34:46;96648.19;;;-1.97;100.00
26978;BME280;56314;48.088;11.642;2023-02-15T03:38:05;96643.88;;;-1.97;100.00
26978;BME280;56314;48.088;11.642;2023-02-15T03:40:30;96651.69;;;-2.08;100.00
26978;BME280;56314;48.088;11.642;2023-02-15T03:43:23;96655.84;;;-1.91;100.00
26978;BME280;56314;48.088;11.642;2023-02-15T03:46:05;96652.47;;;-1.99;100.00
26978;BME280;56314;48.088;11.642;2023-02-15T03:48:35;96654.25;;;-2.08;99.66
26978;BME280;56314;48.088;11.642;2023-02-15T03:51:05;96656.78;;;-2.00;99.50
26978;BME280;56314;48.088;11.642;2023-02-15T03:53:52;96657.56;;;-1.89;99.22
26978;BME280;56314;48.088;11.642;2023-02-15T03:56:19;96655.00;;;-1.95;99.31
26978;BME280;56314;48.088;11.642;2023-02-15T03:58:44;96657.59;;;-1.95;98.86
26978;BME280;56314;48.088;11.642;2023-02-15T04:01:38;96656.72;;;-1.92;98.70
26978;BME280;56314;48.088;11.642;2023-02-15T04:04:32;96660.13;;;-1.89;98.55
26978;BME280;56314;48.088;11.642;2023-02-15T04:06:59;96655.94;;;-1.99;99.17
26978;BME280;56314;48.088;11.642;2023-02-15T04:09:24;96657.50;;;-1.86;99.25
26978;BME280;56314;48.088;11.642;2023-02-15T04:12:08;96657.56;;;-1.92;98.63
26978;BME280;56314;48.088;11.642;2023-02-15T04:14:33;96653.22;;;-1.85;98.31
26978;BME280;56314;48.088;11.642;2023-02-15T04:17:36;96647.31;;;-1.98;98.83
26978;BME280;56314;48.088;11.642;2023-02-15T04:20:01;96651.59;;;-1.97;98.79
26978;BME280;56314;48.088;11.642;2023-02-15T04:22:45;96646.47;;;-2.02;98.28
26978;BME280;56314;48.088;11.642;2023-02-15T04:25:29;96651.69;;;-2.05;98.69
26978;BME280;56314;48.088;11.642;2023-02-15T04:27:54;96647.38;;;-2.07;98.84
26978;BME280;56314;48.088;11.642;2023-02-15T04:30:23;96659.41;;;-2.08;99.42
26978;BME280;56314;48.088;11.642;2023-02-15T04:32:49;96664.53;;;-2.05;99.34
26978;BME280;56314;48.088;11.642;2023-02-15T04:35:15;96667.97;;;-2.07;98.32
26978;BME280;56314;48.088;11.642;2023-02-15T04:37:41;96666.22;;;-2.04;98.42
26978;BME280;56314;48.088;11.642;2023-02-15T04:40:08;96663.78;;;-2.22;97.89
26978;BME280;56314;48.088;11.642;2023-02-15T04:42:34;96665.53;;;-2.23;98.11
26978;BME280;56314;48.088;11.642;2023-02-15T04:44:59;96667.19;;;-2.22;98.23
26978;BME280;56314;48.088;11.642;2023-02-15T04:47:25;96668.13;;;-2.29;98.07
26978;BME280;56314;48.088;11.642;2023-02-15T04:49:50;96671.53;;;-2.24;98.60
26978;BME280;56314;48.088;11.642;2023-02-15T04:52:15;96667.19;;;-2.19;98.67
26978;BME280;56314;48.088;11.642;2023-02-15T04:54:43;96674.91;;;-2.15;98.68
26978;BME280;56314;48.088;11.642;2023-02-15T04:57:08;96668.09;;;-2.23;97.22
26978;BME280;56314;48.088;11.642;2023-02-15T04:59:34;96660.44;;;-2.35;98.20
26978;BME280;56314;48.088;11.642;2023-02-15T05:01:59;96658.75;;;-2.39;98.72
26978;BME280;56314;48.088;11.642;2023-02-15T05:04:24;96662.91;;;-2.20;98.94
26978;BME280;56314;48.088;11.642;2023-02-15T05:06:50;96655.13;;;-2.10;97.86
26978;BME280;56314;48.088;11.642;2023-02-15T05:09:15;96653.50;;;-2.24;98.45
26978;BME280;56314;48.088;11.642;2023-02-15T05:11:41;96662.06;;;-2.22;98.94
26978;BME280;56314;48.088;11.642;2023-02-15T05:14:07;96665.50;;;-2.21;98.19
26978;BME280;56314;48.088;11.642;2023-02-15T05:16:32;96665.53;;;-2.27;98.61
26978;BME280;56314;48.088;11.642;2023-02-15T05:18:58;96668.09;;;-2.27;99.18
26978;BME280;56314;48.088;11.642;2023-02-15T05:21:23;96664.63;;;-2.19;99.24
26978;BME280;56314;48.088;11.642;2023-02-15T05:23:48;96659.53;;;-2.25;99.16
26978;BME280;56314;48.088;11.642;2023-02-15T05:26:19;96662.06;;;-2.17;98.17
26978;BME280;56314;48.088;11.642;2023-02-15T05:29:03;96662.06;;;-2.23;99.19
26978;BME280;56314;48.088;11.642;2023-02-15T05:31:30;96668.13;;;-2.30;98.12
26978;BME280;56314;48.088;11.642;2023-02-15T05:33:56;96660.34;;;-2.18;98.00
26978;BME280;56314;48.088;11.642;2023-02-15T05:36:21;96665.47;;;-2.17;98.11
26978;BME280;56314;48.088;11.642;2023-02-15T05:38:46;96668.91;;;-2.18;98.13
26978;BME280;56314;48.088;11.642;2023-02-15T05:41:12;96670.63;;;-2.18;97.26
26978;BME280;56314;48.088;11.642;2023-02-15T05:43:38;96666.50;;;-2.44;97.06
26978;BME280;56314;48.088;11.642;2023-02-15T05:46:04;96669.91;;;-2.47;96.99
26978;BME280;56314;48.088;11.642;2023-02-15T05:48:29;96675.94;;;-2.52;97.45
26978;BME280;56314;48.088;11.642;2023-02-15T05:51:02;96675.91;;;-2.44;99.02
26978;BME280;56314;48.088;11.642;2023-02-15T05:53:29;96678.44;;;-2.30;99.12
26978;BME280;56314;48.088;11.642;2023-02-15T05:55:55;96676.75;;;-2.42;98.96
26978;BME280;56314;48.088;11.642;2023-02-15T05:58:27;96682.78;;;-2.48;99.41
26978;BME280;56314;48.088;11.642;2023-02-15T06:00:53;96675.94;;;-2.43;99.21
26978;BME280;56314;48.088;11.642;2023-02-15T06:03:18;96675.06;;;-2.42;99.90
26978;BME280;56314;48.088;11.642;2023-02-15T06:05:44;96671.56;;;-2.33;98.92
26978;BME280;56314;48.088;11.642;2023-02-15T06:08:09;96670.75;;;-2.41;99.47
26978;BME280;56314;48.088;11.642;2023-02-15T06:10:34;96678.53;;;-2.54;100.00
26978;BME280;56314;48.088;11.642;2023-02-15T06:13:00;96669.09;;;-2.52;100.00
26978;BME280;56314;48.088;11.642;2023-02-15T06:15:25;96671.66;;;-2.50;100.00
26978;BME280;56314;48.088;11.642;2023-02-15T06:17:51;96676.75;;;-2.42;99.91
26978;BME280;56314;48.088;11.642;2023-02-15T06:20:16;96677.66;;;-2.45;100.00
26978;BME280;56314;48.088;11.642;2023-02-15T06:22:42;96673.38;;;-2.48;100.00
26978;BME280;56314;48.088;11.642;2023-02-15T06:25:07;96677.66;;;-2.51;100.00
26978;BME280;56314;48.088;11.642;2023-02-15T06:27:35;96683.66;;;-2.49;100.00
26978;BME280;56314;48.088;11.642;2023-02-15T06:30:00;96687.94;;;-2.48;99.95
26978;BME280;56314;48.088;11.642;2023-02-15T06:32:26;96689.72;;;-2.61;100.00
26978;BME280;56314;48.088;11.642;2023-02-15T06:34:51;96695.72;;;-2.57;100.00
26978;BME280;56314;48.088;11.642;2023-02-15T06:37:16;96687.13;;;-2.53;99.79
26978;BME280;56314;48.088;11.642;2023-02-15T06:39:42;96686.28;;;-2.55;99.96
26978;BME280;56314;48.088;11.642;2023-02-15T06:42:08;96688.84;;;-2.55;99.52
26978;BME280;56314;48.088;11.642;2023-02-15T06:44:33;96691.44;;;-2.61;99.03
26978;BME280;56314;48.088;11.642;2023-02-15T06:46:58;96692.31;;;-2.67;98.00
26978;BME280;56314;48.088;11.642;2023-02-15T06:49:24;96691.50;;;-2.77;98.39
26978;BME280;56314;48.088;11.642;2023-02-15T06:51:49;96693.22;;;-2.78;98.27
26978;BME280;56314;48.088;11.642;2023-02-15T06:54:14;96691.44;;;-2.69;97.37
26978;BME280;56314;48.088;11.642;2023-02-15T06:56:39;96701.75;;;-2.69;97.37
26978;BME280;56314;48.088;11.642;2023-02-15T06:59:05;96703.47;;;-2.67;95.79
26978;BME280;56314;48.088;11.642;2023-02-15T07:01:30;96700.84;;;-2.54;96.56
26978;BME280;56314;48.088;11.642;2023-02-15T07:03:55;96699.13;;;-2.58;97.02
26978;BME280;56314;48.088;11.642;2023-02-15T07:06:21;96701.78;;;-2.72;96.59
26978;BME280;56314;48.088;11.642;2023-02-15T07:08:46;96709.44;;;-2.66;96.95
26978;BME280;56314;48.088;11.642;2023-02-15T07:11:11;96712.00;;;-2.60;97.09
26978;BME280;56314;48.088;11.642;2023-02-15T07:13:55;96698.25;;;-2.53;95.89
26978;BME280;56314;48.088;11.642;2023-02-15T07:16:21;96699.97;;;-2.58;96.26
26978;BME280;56314;48.088;11.642;2023-02-15T07:18:47;96709.41;;;-2.57;95.94
26978;BME280;56314;48.088;11.642;2023-02-15T07:21:12;96710.25;;;-2.55;96.06
26978;BME280;56314;48.088;11.642;2023-02-15T07:23:39;96710.13;;;-2.27;95.12
26978;BME280;56314;48.088;11.642;2023-02-15T07:26:05;96712.75;;;-2.38;94.32
26978;BME280;56314;48.088;11.642;2023-02-15T07:28:32;96702.47;;;-2.35;94.46
26978;BME280;56314;48.088;11.642;2023-02-15T07:30:58;96705.00;;;-2.27;94.49
26978;BME280;56314;48.088;11.642;2023-02-15T07:33:23;96701.47;;;-2.15;94.18
26978;BME280;56314;48.088;11.642;2023-02-15T07:35:54;96698.88;;;-2.10;93.82
26978;BME280;56314;48.088;11.642;2023-02-15T07:38:21;96698.84;;;-2.07;94.27
26978;BME280;56314;48.088;11.642;2023-02-15T07:40:46;96700.59;;;-2.11;93.28
26978;BME280;56314;48.088;11.642;2023-02-15T07:43:13;96693.69;;;-2.04;93.25
26978;BME280;56314;48.088;11.642;2023-02-15T07:45:40;96692.78;;;-1.94;92.79
26978;BME280;56314;48.088;11.642;2023-02-15T07:48:05;96695.41;;;-2.02;92.64
26978;BME280;56314;48.088;11.642;2023-02-15T07:50:32;96690.31;;;-2.11;91.46
26978;BME280;56314;48.088;11.642;2023-02-15T07:52:58;96686.03;;;-2.12;91.94
26978;BME280;56314;48.088;11.642;2023-02-15T07:55:23;96684.28;;;-2.07;92.16
26978;BME280;56314;48.088;11.642;2023-02-15T07:57:50;96691.97;;;-2.02;92.16
26978;BME280;56314;48.088;11.642;2023-02-15T08:00:18;96694.53;;;-2.04;91.49
26978;BME280;56314;48.088;11.642;2023-02-15T08:02:50;96687.66;;;-1.98;91.87
26978;BME280;56314;48.088;11.642;2023-02-15T08:05:36;96681.59;;;-1.93;92.05
26978;BME280;56314;48.088;11.642;2023-02-15T08:08:02;96682.41;;;-1.86;91.57
26978;BME280;56314;48.088;11.642;2023-02-15T08:10:27;96674.63;;;-1.78;91.70
26978;BME280;56314;48.088;11.642;2023-02-15T08:13:12;96674.63;;;-1.75;91.06
26978;BME280;56314;48.088;11.642;2023-02-15T08:15:38;96677.81;;;-1.48;90.65
26978;BME280;56314;48.088;11.642;2023-02-15T08:18:03;96676.16;;;-1.52;90.22
26978;BME280;56314;48.088;11.642;2023-02-15T08:20:28;96671.59;;;-1.24;89.47
26978;BME280;56314;48.088;11.642;2023-02-15T08:22:54;96668.69;;;-0.91;88.80
26978;BME280;56314;48.088;11.642;2023-02-15T08:25:19;96668.94;;;-0.44;86.78
26978;BME280;56314;48.088;11.642;2023-02-15T08:27:44;96664.31;;;-0.19;83.29
26978;BME280;56314;48.088;11.642;2023-02-15T08:30:10;96659.59;;;0.63;80.00
26978;BME280;56314;48.088;11.642;2023-02-15T08:32:36;96652.88;;;0.99;76.38
26978;BME280;56314;48.088;11.642;2023-02-15T08:35:02;96658.69;;;1.54;74.76
26978;BME280;56314;48.088;11.642;2023-02-15T08:37:27;96654.31;;;1.58;72.63
26978;BME280;56314;48.088;11.642;2023-02-15T08:39:52;96646.69;;;1.91;72.87
26978;BME280;56314;48.088;11.642;2023-02-15T08:42:18;96648.72;;;2.52;70.11
26978;BME280;56314;48.088;11.642;2023-02-15T08:44:45;96648.72;;;3.18;67.19
26978;BME280;56314;48.088;11.642;2023-02-15T08:47:10;96633.97;;;4.36;63.49
26978;BME280;56314;48.088;11.642;2023-02-15T08:49:35;96627.22;;;5.31;59.62
26978;BME280;56314;48.088;11.642;2023-02-15T08:52:01;96620.44;;;5.75;57.19
26978;BME280;56314;48.088;11.642;2023-02-15T08:54:26;96614.88;;;6.28;55.59
26978;BME280;56314;48.088;11.642;2023-02-15T08:56:51;96623.22;;;7.00;54.77
26978;BME280;56314;48.088;11.642;2023-02-15T08:59:19;96618.63;;;7.26;53.12
26978;BME280;56314;48.088;11.642;2023-02-15T09:01:46;96611.28;;;8.47;51.01
26978;BME280;56314;48.088;11.642;2023-02-15T09:04:12;96606.09;;;9.16;49.23
26978;BME280;56314;48.088;11.642;2023-02-15T09:06:38;96596.38;;;10.16;47.04
26978;BME280;56314;48.088;11.642;2023-02-15T09:09:05;96603.56;;;10.75;45.59
26978;BME280;56314;48.088;11.642;2023-02-15T09:11:34;96602.50;;;11.22;43.12
26978;BME280;56314;48.088;11.642;2023-02-15T09:14:02;96594.25;;;11.43;44.56
26978;BME280;56314;48.088;11.642;2023-02-15T09:16:30;96596.88;;;11.14;42.50
26978;BME280;56314;48.088;11.642;2023-02-15T09:18:56;96603.84;;;11.30;42.34
26978;BME280;56314;48.088;11.642;2023-02-15T09:21:23;96599.59;;;11.56;42.26
26978;BME280;56314;48.088;11.642;2023-02-15T09:23:51;96592.41;;;12.29;40.33
26978;BME280;56314;48.088;11.642;2023-02-15T09:26:21;96594.66;;;12.75;41.50
26978;BME280;56314;48.088;11.642;2023-02-15T09:28:50;96591.34;;;12.19;41.40
26978;BME280;56314;48.088;11.642;2023-02-15T09:31:18;96594.13;;;12.70;40.42
26978;BME280;56314;48.088;11.642;2023-02-15T09:33:45;96589.84;;;12.42;42.17
26978;BME280;56314;48.088;11.642;2023-02-15T09:36:22;96587.13;;;13.22;43.66
26978;BME280;56314;48.088;11.642;2023-02-15T09:38:55;96586.94;;;13.51;39.33
26978;BME280;56314;48.088;11.642;2023-02-15T09:55:50;96590.22;;;14.78;36.51
26978;BME280;56314;48.088;11.642;2023-02-15T10:09:15;96580.66;;;15.00;38.14
26978;BME280;56314;48.088;11.642;2023-02-15T10:15:24;96587.28;;;14.70;36.85
26978;BME280;56314;48.088;11.642;2023-02-15T10:23:20;96568.66;;;15.30;37.46
26978;BME280;56314;48.088;11.642;2023-02-15T10:28:42;96559.50;;;15.11;37.03
26978;BME280;56314;48.088;11.642;2023-02-15T10:34:14;96563.41;;;14.83;39.78
26978;BME280;56314;48.088;11.642;2023-02-15T10:40:01;96553.03;;;15.27;38.92
26978;BME280;56314;48.088;11.642;2023-02-15T10:54:40;96548.28;;;14.85;38.77
26978;BME280;56314;48.088;11.642;2023-02-15T11:00:18;96535.16;;;14.83;38.73
26978;BME280;56314;48.088;11.642;2023-02-15T11:06:01;96531.91;;;13.95;40.86
26978;BME280;56314;48.088;11.642;2023-02-15T11:08:31;96530.00;;;14.57;39.53
26978;BME280;56314;48.088;11.642;2023-02-15T11:11:01;96529.50;;;14.76;39.07
26978;BME280;56314;48.088;11.642;2023-02-15T11:13:29;96520.44;;;14.68;38.02
26978;BME280;56314;48.088;11.642;2023-02-15T11:16:05;96518.09;;;14.87;39.05
26978;BME280;56314;48.088;11.642;2023-02-15T11:18:48;96519.44;;;14.93;37.40
26978;BME280;56314;48.088;11.642;2023-02-15T11:23:43;96509.56;;;14.84;37.90
26978;BME280;56314;48.088;11.642;2023-02-15T11:26:29;96504.09;;;14.62;38.66
26978;BME280;56314;48.088;11.642;2023-02-15T11:31:44;96493.16;;;14.31;39.79
26978;BME280;56314;48.088;11.642;2023-02-15T11:34:16;96489.53;;;14.57;39.56
26978;BME280;56314;48.088;11.642;2023-02-15T11:36:44;96483.75;;;14.63;39.46
26978;BME280;56314;48.088;11.642;2023-02-15T11:39:15;96484.41;;;14.67;38.70
26978;BME280;56314;48.088;11.642;2023-02-15T11:41:47;96477.69;;;14.38;38.72
26978;BME280;56314;48.088;11.642;2023-02-15T11:44:34;96478.25;;;14.19;39.00
26978;BME280;56314;48.088;11.642;2023-02-15T11:47:02;96475.91;;;14.39;38.27
26978;BME280;56314;48.088;11.642;2023-02-15T11:49:32;96463.94;;;14.10;38.66
26978;BME280;56314;48.088;11.642;2023-02-15T11:52:02;96466.66;;;14.09;40.41
26978;BME280;56314;48.088;11.642;2023-02-15T11:54:31;96458.38;;;14.13;39.01
26978;BME280;56314;48.088;11.642;2023-02-15T11:57:11;96462.88;;;14.24;39.00
26978;BME280;56314;48.088;11.642;2023-02-15T11:59:39;96454.59;;;14.29;39.25
26978;BME280;56314;48.088;11.642;2023-02-15T12:02:16;96452.75;;;14.07;39.43
26978;BME280;56314;48.088;11.642;2023-02-15T12:04:47;96454.31;;;14.09;39.24
26978;BME280;56314;48.088;11.642;2023-02-15T12:07:22;96446.78;;;13.92;40.44
26978;BME280;56314;48.088;11.642;2023-02-15T12:09:57;96439.03;;;13.53;40.52
26978;BME280;56314;48.088;11.642;2023-02-15T12:12:32;96442.63;;;12.89;41.59
26978;BME280;56314;48.088;11.642;2023-02-15T12:15:04;96444.13;;;12.41;43.63
26978;BME280;56314;48.088;11.642;2023-02-15T12:17:33;96445.38;;;11.95;43.61
26978;BME280;56314;48.088;11.642;2023-02-15T12:20:03;96448.50;;;11.33;44.86
26978;BME280;56314;48.088;11.642;2023-02-15T12:22:34;96442.53;;;10.87;46.53
26978;BME280;56314;48.088;11.642;2023-02-15T12:25:04;96447.03;;;10.42;48.09
26978;BME280;56314;48.088;11.642;2023-02-15T12:27:45;96445.41;;;9.94;49.43
26978;BME280;56314;48.088;11.642;2023-02-15T12:30:31;96445.72;;;9.88;50.06
26978;BME280;56314;48.088;11.642;2023-02-15T12:35:38;96441.31;;;9.58;51.51
26978;BME280;56314;48.088;11.642;2023-02-15T12:40:33;96438.00;;;9.38;53.96
26978;BME280;56314;48.088;11.642;2023-02-15T12:43:00;96432.97;;;9.19;54.22
26978;BME280;56314;48.088;11.642;2023-02-15T12:45:33;96429.84;;;9.29;55.32
26978;BME280;56314;48.088;11.642;2023-02-15T12:48:15;96426.69;;;9.84;53.04
26978;BME280;56314;48.088;11.642;2023-02-15T12:50:49;96420.78;;;10.56;51.30
26978;BME280;56314;48.088;11.642;2023-02-15T12:53:33;96411.91;;;11.30;48.58
26978;BME280;56314;48.088;11.642;2023-02-15T12:56:06;96401.47;;;11.96;47.81
26978;BME280;56314;48.088;11.642;2023-02-15T12:58:33;96402.81;;;12.55;46.94
26978;BME280;56314;48.088;11.642;2023-02-15T13:03:34;96387.91;;;13.30;45.07
26978;BME280;56314;48.088;11.642;2023-02-15T13:06:01;96388.56;;;13.20;45.15
26978;BME280;56314;48.088;11.642;2023-02-15T13:08:30;96387.69;;;13.33;44.81
26978;BME280;56314;48.088;11.642;2023-02-15T13:10:59;96386.75;;;13.34;45.12
26978;BME280;56314;48.088;11.642;2023-02-15T13:13:27;96381.22;;;13.50;44.28
26978;BME280;56314;48.088;11.642;2023-02-15T13:15:58;96379.03;;;13.44;44.18
26978;BME280;56314;48.088;11.642;2023-02-15T13:18:36;96373.75;;;13.44;44.08
26978;BME280;56314;48.088;11.642;2023-02-15T13:21:23;96366.13;;;13.52;44.76
26978;BME280;56314;48.088;11.642;2023-02-15T13:23:59;96369.41;;;13.67;44.31
26978;BME280;56314;48.088;11.642;2023-02-15T13:26:30;96365.63;;;13.82;44.10
26978;BME280;56314;48.088;11.642;2023-02-15T13:28:59;96363.91;;;14.06;43.45
26978;BME280;56314;48.088;11.642;2023-02-15T13:31:28;96351.56;;;14.29;44.12
26978;BME280;56314;48.088;11.642;2023-02-15T13:34:02;96358.19;;;14.35;42.92
26978;BME280;56314;48.088;11.642;2023-02-15T13:39:51;96353.13;;;14.20;43.38
26978;BME280;56314;48.088;11.642;2023-02-15T13:42:25;96350.38;;;14.22;43.59
26978;BME280;56314;48.088;11.642;2023-02-15T13:47:58;96361.25;;;13.94;44.19
26978;BME280;56314;48.088;11.642;2023-02-15T13:59:17;96354.13;;;13.83;44.57
26978;BME280;56314;48.088;11.642;2023-02-15T14:01:56;96359.44;;;13.95;44.51
26978;BME280;56314;48.088;11.642;2023-02-15T14:10:39;96359.97;;;13.27;46.67
26978;BME280;56314;48.088;11.642;2023-02-15T14:12:58;96363.69;;;13.12;47.48
26978;BME280;56314;48.088;11.642;2023-02-15T14:15:50;96360.56;;;13.06;47.35
26978;BME280;56314;48.088;11.642;2023-02-15T14:27:07;96356.25;;;12.04;50.82
26978;BME280;56314;48.088;11.642;2023-02-15T14:29:56;96359.78;;;11.90;51.48
26978;BME280;56314;48.088;11.642;2023-02-15T14:32:36;96361.31;;;11.66;52.11
26978;BME280;56314;48.088;11.642;2023-02-15T14:35:05;96357.09;;;11.64;52.33
26978;BME280;56314;48.088;11.642;2023-02-15T14:42:57;96356.09;;;10.97;54.30
26978;BME280;56314;48.088;11.642;2023-02-15T14:50:50;96352.56;;;10.11;57.90
26978;BME280;56314;48.088;11.642;2023-02-15T14:53:36;96358.06;;;9.92;58.33
26978;BME280;56314;48.088;11.642;2023-02-15T15:01:27;96354.34;;;9.66;60.06
26978;BME280;56314;48.088;11.642;2023-02-15T15:03:57;96361.56;;;9.46;60.55
26978;BME280;56314;48.088;11.642;2023-02-15T15:06:27;96359.84;;;9.31;61.36
26978;BME280;56314;48.088;11.642;2023-02-15T15:08:55;96358.75;;;9.19;61.94
26978;BME280;56314;48.088;11.642;2023-02-15T15:18:57;96366.09;;;8.64;64.28
26978;BME280;56314;48.088;11.642;2023-02-15T15:22:02;96366.25;;;8.43;65.51
26978;BME280;56314;48.088;11.642;2023-02-15T15:29:46;96369.06;;;7.89;67.56
26978;BME280;56314;48.088;11.642;2023-02-15T15:32:15;96365.59;;;7.71;68.42
26978;BME280;56314;48.088;11.642;2023-02-15T15:34:51;96366.94;;;7.62;68.89